createdAt,value
2022-10-05T00:02:39.399Z,100.00
2022-10-05T00:17:41.563Z,100.00
2022-10-05T00:32:43.616Z,100.00
2022-10-05T00:47:58.923Z,100.00
2022-10-05T01:03:27.307Z,100.00
2022-10-05T01:18:38.674Z,100.00
2022-10-05T01:33:42.814Z,100.00
2022-10-05T01:48:56.851Z,100.00
2022-10-05T02:04:01.838Z,100.00
2022-10-05T02:19:23.282Z,100.00
2022-10-05T02:34:27.964Z,100.00
2022-10-05T02:49:40.065Z,100.00
2022-10-05T03:04:51.235Z,100.00
2022-10-05T03:20:11.628Z,100.00
2022-10-05T03:35:19.794Z,100.00
2022-10-05T03:50:42.302Z,100.00
2022-10-05T04:05:50.890Z,100.00
2022-10-05T04:20:58.756Z,100.00
2022-10-05T04:36:01.151Z,100.00
2022-10-05T04:51:11.148Z,100.00
2022-10-05T05:06:31.974Z,100.00
2022-10-05T05:21:53.378Z,100.00
2022-10-05T05:36:55.660Z,100.00
2022-10-05T05:51:59.182Z,100.00
2022-10-05T06:07:02.029Z,100.00
2022-10-05T06:22:23.928Z,100.00
2022-10-05T06:37:34.019Z,100.00
2022-10-05T06:52:39.682Z,100.00
2022-10-05T07:07:52.449Z,100.00
2022-10-05T07:22:55.368Z,100.00
2022-10-05T07:37:58.611Z,91.12
2022-10-05T07:53:13.916Z,95.22
2022-10-05T08:08:18.209Z,88.91
2022-10-05T08:23:48.061Z,81.03
2022-10-05T08:38:50.220Z,69.45
2022-10-05T08:54:07.458Z,65.36
2022-10-05T09:09:18.598Z,61.04
2022-10-05T09:24:26.222Z,64.69
2022-10-05T09:39:32.911Z,64.52
2022-10-05T09:54:37.783Z,61.26
2022-10-05T10:09:39.643Z,61.24
2022-10-05T10:24:59.924Z,59.75
2022-10-05T10:40:20.702Z,57.98
2022-10-05T10:55:41.171Z,55.17
2022-10-05T11:10:49.036Z,56.55
2022-10-05T11:25:50.907Z,52.60
2022-10-05T11:41:04.943Z,53.82
2022-10-05T11:56:16.190Z,49.85
2022-10-05T12:11:30.163Z,56.29
2022-10-05T12:26:40.995Z,54.63
2022-10-05T12:41:45.171Z,56.61
2022-10-05T12:57:05.887Z,56.84
2022-10-05T13:12:12.032Z,67.57
2022-10-05T13:27:15.868Z,75.14
2022-10-05T13:42:36.085Z,74.25
2022-10-05T13:57:51.573Z,79.49
2022-10-05T14:12:53.937Z,79.70
2022-10-05T14:27:59.250Z,75.04
2022-10-05T14:43:16.458Z,77.84
2022-10-05T14:58:18.334Z,97.45
2022-10-05T15:13:32.410Z,98.88
2022-10-05T15:28:48.944Z,94.37
2022-10-05T15:44:01.975Z,99.13
2022-10-05T15:59:24.450Z,100.00
2022-10-05T16:14:41.711Z,100.00
2022-10-05T16:29:53.209Z,100.00
2022-10-05T16:44:55.459Z,100.00
2022-10-05T17:00:04.989Z,100.00
2022-10-05T17:15:10.242Z,100.00
2022-10-05T17:30:27.386Z,100.00
2022-10-05T17:45:29.336Z,100.00
2022-10-05T18:00:35.482Z,100.00
2022-10-05T18:15:43.812Z,100.00
2022-10-05T18:30:54.969Z,100.00
2022-10-05T18:46:03.641Z,100.00
2022-10-05T19:01:16.963Z,100.00
2022-10-05T19:16:22.568Z,100.00
2022-10-05T19:31:34.536Z,100.00
2022-10-05T19:46:36.413Z,100.00
2022-10-05T20:01:40.139Z,100.00
2022-10-05T20:17:00.983Z,100.00
2022-10-05T20:32:08.726Z,100.00
2022-10-05T20:47:10.706Z,100.00
2022-10-05T21:02:12.675Z,100.00
2022-10-05T21:17:14.682Z,100.00
2022-10-05T21:32:16.589Z,100.00
2022-10-05T21:47:18.526Z,100.00
2022-10-05T22:02:20.402Z,100.00
2022-10-05T22:17:27.290Z,100.00
2022-10-05T22:32:29.165Z,100.00
2022-10-05T22:47:31.038Z,100.00
2022-10-05T23:02:35.955Z,100.00
2022-10-05T23:17:39.190Z,100.00
2022-10-05T23:32:41.392Z,100.00
2022-10-05T23:47:43.301Z,100.00
